createdAt,value
2023-01-02T00:02:17.654Z,79.26
2023-01-02T00:04:45.044Z,79.32
2023-01-02T00:07:12.047Z,79.32
2023-01-02T00:09:39.656Z,79.23
2023-01-02T00:12:06.821Z,79.27
2023-01-02T00:14:34.336Z,79.35
2023-01-02T00:17:01.371Z,79.32
2023-01-02T00:19:28.613Z,79.35
2023-01-02T00:21:55.474Z,79.20
2023-01-02T00:24:22.677Z,79.38
2023-01-02T00:26:49.547Z,79.29
2023-01-02T00:29:16.720Z,79.22
2023-01-02T00:31:43.705Z,79.26
2023-01-02T00:34:10.941Z,79.14
2023-01-02T00:36:37.797Z,79.26
2023-01-02T00:39:04.924Z,79.28
2023-01-02T00:41:31.907Z,79.39
2023-01-02T00:43:59.095Z,79.16
2023-01-02T00:46:25.961Z,79.22
2023-01-02T00:48:53.222Z,79.04
2023-01-02T00:51:20.212Z,79.04
2023-01-02T00:53:47.418Z,79.24
2023-01-02T00:56:14.288Z,79.25
2023-01-02T00:58:41.466Z,79.12
2023-01-02T01:01:08.530Z,79.29
2023-01-02T01:03:35.810Z,79.09
2023-01-02T01:06:08.097Z,79.12
2023-01-02T01:08:38.876Z,78.84
2023-01-02T01:11:06.950Z,78.41
2023-01-02T01:13:34.895Z,78.63
2023-01-02T01:16:13.786Z,78.77
2023-01-02T01:18:41.465Z,78.89
2023-01-02T01:21:19.971Z,78.79
2023-01-02T01:23:55.038Z,78.59
2023-01-02T01:26:22.999Z,78.65
2023-01-02T01:28:53.488Z,78.85
2023-01-02T01:31:38.975Z,78.76
2023-01-02T01:34:06.227Z,78.77
2023-01-02T01:36:36.339Z,79.15
2023-01-02T01:39:03.746Z,78.98
2023-01-02T01:41:30.610Z,78.78
2023-01-02T01:44:01.674Z,78.83
2023-01-02T01:46:46.423Z,78.79
2023-01-02T01:49:25.927Z,79.20
2023-01-02T01:52:12.721Z,79.09
2023-01-02T01:54:46.319Z,79.13
2023-01-02T01:57:19.393Z,79.15
2023-01-02T01:59:48.515Z,79.25
2023-01-02T02:02:16.287Z,79.12
2023-01-02T02:04:45.378Z,79.09
2023-01-02T02:07:14.314Z,79.29
2023-01-02T02:09:50.135Z,79.22
2023-01-02T02:12:19.699Z,79.15
2023-01-02T02:14:50.505Z,79.26
2023-01-02T02:17:33.641Z,79.12
2023-01-02T02:20:14.457Z,78.99
2023-01-02T02:22:53.397Z,79.16
2023-01-02T02:25:35.875Z,78.75
2023-01-02T02:28:31.805Z,78.98
2023-01-02T02:31:17.652Z,79.15
2023-01-02T02:33:53.602Z,79.27
2023-01-02T02:36:37.788Z,79.31
2023-01-02T02:39:33.829Z,79.31
2023-01-02T02:42:08.487Z,79.36
2023-01-02T02:44:44.151Z,79.35
2023-01-02T02:47:41.450Z,79.48
2023-01-02T02:50:32.791Z,79.62
2023-01-02T02:53:10.060Z,79.61
2023-01-02T02:55:46.034Z,79.54
2023-01-02T02:58:15.141Z,79.95
2023-01-02T03:00:42.288Z,80.03
2023-01-02T03:03:21.804Z,80.09
2023-01-02T03:06:16.603Z,80.02
2023-01-02T03:08:49.683Z,80.22
2023-01-02T03:11:16.695Z,80.04
2023-01-02T03:14:07.917Z,80.12
2023-01-02T03:16:43.864Z,80.02
2023-01-02T03:19:28.649Z,79.87
2023-01-02T03:22:34.006Z,79.87
2023-01-02T03:25:03.645Z,79.70
2023-01-02T03:27:36.217Z,79.75
2023-01-02T03:30:11.163Z,79.91
2023-01-02T03:32:44.340Z,79.78
2023-01-02T03:35:17.197Z,79.96
2023-01-02T03:37:50.008Z,79.82
2023-01-02T03:40:22.628Z,79.72
2023-01-02T03:43:01.879Z,79.78
2023-01-02T03:45:35.032Z,79.62
2023-01-02T03:48:16.171Z,79.54
2023-01-02T03:50:51.030Z,79.48
2023-01-02T03:53:18.427Z,79.37
2023-01-02T03:55:59.866Z,79.47
2023-01-02T03:58:33.660Z,79.63
2023-01-02T04:01:07.899Z,79.41
2023-01-02T04:03:47.007Z,79.61
2023-01-02T04:06:18.668Z,79.54
2023-01-02T04:09:00.454Z,79.67
2023-01-02T04:11:30.183Z,79.81
2023-01-02T04:14:03.475Z,79.59
2023-01-02T04:16:35.745Z,79.70
2023-01-02T04:19:02.874Z,79.75
2023-01-02T04:21:33.395Z,79.65
2023-01-02T04:24:07.913Z,79.75
2023-01-02T04:26:59.620Z,79.72
2023-01-02T04:29:26.692Z,79.46
2023-01-02T04:32:01.151Z,79.59
2023-01-02T04:34:31.679Z,79.76
2023-01-02T04:36:59.529Z,79.88
2023-01-02T04:39:28.947Z,79.79
2023-01-02T04:41:56.848Z,79.90
2023-01-02T04:44:23.775Z,80.09
2023-01-02T04:46:50.926Z,80.27
2023-01-02T04:49:17.927Z,80.39
2023-01-02T04:51:45.224Z,80.41
2023-01-02T04:54:13.449Z,80.62
2023-01-02T04:56:40.660Z,80.73
2023-01-02T04:59:07.630Z,80.98
2023-01-02T05:01:34.974Z,80.82
2023-01-02T05:04:01.990Z,81.03
2023-01-02T05:06:29.143Z,81.03
2023-01-02T05:08:56.098Z,81.22
2023-01-02T05:11:23.304Z,81.19
2023-01-02T05:13:50.283Z,81.10
2023-01-02T05:16:17.644Z,81.36
2023-01-02T05:18:44.709Z,81.47
2023-01-02T05:21:31.853Z,81.67
2023-01-02T05:24:01.980Z,82.05
2023-01-02T05:26:33.290Z,82.09
2023-01-02T05:29:00.485Z,82.15
2023-01-02T05:31:28.795Z,82.39
2023-01-02T05:33:58.237Z,82.30
2023-01-02T05:36:26.691Z,82.32
2023-01-02T05:38:53.928Z,82.01
2023-01-02T05:41:22.201Z,82.20
2023-01-02T05:43:49.269Z,82.36
2023-01-02T05:46:19.787Z,82.28
2023-01-02T05:48:47.561Z,82.48
2023-01-02T05:51:17.163Z,82.69
2023-01-02T05:53:44.959Z,82.88
2023-01-02T05:56:16.766Z,83.30
2023-01-02T05:58:46.202Z,83.28
2023-01-02T06:01:22.006Z,83.20
2023-01-02T06:03:51.037Z,83.16
2023-01-02T06:06:22.472Z,83.63
2023-01-02T06:08:49.670Z,83.64
2023-01-02T06:11:16.966Z,83.71
2023-01-02T06:13:43.905Z,83.99
2023-01-02T06:16:11.562Z,84.13
2023-01-02T06:18:39.810Z,84.20
2023-01-02T06:21:12.724Z,84.38
2023-01-02T06:23:40.529Z,84.21
2023-01-02T06:26:16.271Z,84.44
2023-01-02T06:28:43.559Z,84.82
2023-01-02T06:31:13.817Z,84.93
2023-01-02T06:33:41.928Z,84.95
2023-01-02T06:36:17.473Z,85.01
2023-01-02T06:38:48.000Z,84.97
2023-01-02T06:41:16.383Z,85.30
2023-01-02T06:43:45.975Z,85.41
2023-01-02T06:46:18.229Z,85.35
2023-01-02T06:48:46.269Z,85.50
2023-01-02T06:51:16.011Z,86.02
2023-01-02T06:53:44.557Z,85.97
2023-01-02T06:56:13.395Z,86.08
2023-01-02T06:58:41.020Z,85.88
2023-01-02T07:01:11.882Z,86.26
2023-01-02T07:03:39.537Z,86.22
2023-01-02T07:06:10.117Z,86.25
2023-01-02T07:08:37.438Z,86.50
2023-01-02T07:11:11.558Z,86.38
2023-01-02T07:13:39.504Z,86.44
2023-01-02T07:16:09.201Z,86.30
2023-01-02T07:18:37.052Z,86.29
2023-01-02T07:21:08.918Z,86.11
2023-01-02T07:23:36.240Z,85.81
2023-01-02T07:26:06.360Z,85.80
2023-01-02T07:28:35.495Z,85.73
2023-01-02T07:31:08.605Z,85.39
2023-01-02T07:33:35.647Z,84.63
2023-01-02T07:36:06.480Z,84.62
2023-01-02T07:38:34.685Z,84.46
2023-01-02T07:41:01.886Z,84.43
2023-01-02T07:43:28.895Z,84.19
2023-01-02T07:46:03.174Z,83.79
2023-01-02T07:48:31.374Z,83.61
2023-01-02T07:51:02.658Z,83.68
2023-01-02T07:53:30.186Z,83.49
2023-01-02T07:55:58.727Z,83.49
2023-01-02T07:58:26.057Z,83.76
2023-01-02T08:00:58.369Z,83.25
2023-01-02T08:03:28.502Z,82.91
2023-01-02T08:06:02.918Z,82.64
2023-01-02T08:08:30.120Z,82.80
2023-01-02T08:10:57.364Z,82.82
2023-01-02T08:13:24.361Z,82.53
2023-01-02T08:15:51.637Z,82.83
2023-01-02T08:18:18.486Z,82.22
2023-01-02T08:20:45.706Z,82.21
2023-01-02T08:23:12.707Z,81.90
2023-01-02T08:25:39.859Z,81.72
2023-01-02T08:28:06.779Z,81.05
2023-01-02T08:30:34.117Z,80.54
2023-01-02T08:33:01.274Z,80.21
2023-01-02T08:35:38.099Z,80.03
2023-01-02T08:38:06.095Z,79.17
2023-01-02T08:40:33.343Z,79.25
2023-01-02T08:43:00.267Z,78.54
2023-01-02T08:45:27.515Z,79.24
2023-01-02T08:47:54.445Z,78.59
2023-01-02T08:50:21.947Z,78.85
2023-01-02T08:52:57.564Z,78.65
2023-01-02T08:55:24.817Z,78.30
2023-01-02T08:57:51.764Z,78.00
2023-01-02T09:00:19.237Z,77.46
2023-01-02T09:02:46.411Z,76.64
2023-01-02T09:05:14.246Z,76.69
2023-01-02T09:07:41.289Z,76.68
2023-01-02T09:10:09.258Z,76.20
2023-01-02T09:12:36.656Z,76.59
2023-01-02T09:15:05.170Z,76.68
2023-01-02T09:17:32.200Z,77.07
2023-01-02T09:19:59.523Z,77.15
2023-01-02T09:22:26.535Z,77.31
2023-01-02T09:24:53.737Z,77.15
2023-01-02T09:27:20.692Z,77.00
2023-01-02T09:29:47.971Z,76.76
2023-01-02T09:32:14.927Z,77.03
2023-01-02T09:34:42.224Z,76.87
2023-01-02T09:37:10.348Z,76.63
2023-01-02T09:39:37.798Z,76.70
2023-01-02T09:42:08.907Z,76.31
2023-01-02T09:44:41.127Z,76.15
2023-01-02T09:47:11.118Z,75.60
2023-01-02T09:49:47.703Z,75.21
2023-01-02T09:52:24.586Z,75.12
2023-01-02T09:54:51.785Z,75.09
2023-01-02T09:57:37.950Z,74.81
2023-01-02T10:00:16.072Z,74.72
2023-01-02T10:02:56.857Z,73.92
2023-01-02T10:05:51.062Z,74.04
2023-01-02T10:08:17.918Z,74.28
2023-01-02T10:11:02.307Z,74.23
2023-01-02T10:14:21.372Z,74.03
2023-01-02T10:16:52.652Z,74.04
2023-01-02T10:19:27.303Z,73.88
2023-01-02T10:22:00.137Z,73.45
2023-01-02T10:24:41.317Z,73.36
2023-01-02T10:27:22.891Z,73.27
2023-01-02T10:30:20.605Z,73.17
2023-01-02T10:33:09.410Z,73.13
2023-01-02T10:35:44.644Z,72.41
2023-01-02T10:38:14.299Z,72.46
2023-01-02T10:40:44.849Z,72.33
2023-01-02T10:43:13.761Z,71.91
2023-01-02T10:45:41.202Z,71.43
2023-01-02T10:48:11.901Z,71.17
2023-01-02T10:50:46.461Z,71.38
2023-01-02T10:53:33.204Z,70.75
2023-01-02T10:56:20.535Z,70.71
2023-01-02T10:58:50.701Z,70.66
2023-01-02T11:01:20.932Z,70.67
2023-01-02T11:04:11.912Z,70.68
2023-01-02T11:06:58.978Z,70.84
2023-01-02T11:09:35.989Z,70.65
2023-01-02T11:12:11.592Z,70.55
2023-01-02T11:14:39.915Z,70.42
2023-01-02T11:17:16.829Z,70.38
2023-01-02T11:19:52.424Z,70.11
2023-01-02T11:22:22.421Z,70.20
2023-01-02T11:25:00.850Z,69.44
2023-01-02T11:27:41.474Z,68.57
2023-01-02T11:30:26.327Z,68.96
2023-01-02T11:33:19.632Z,68.88
2023-01-02T11:36:17.987Z,69.13
2023-01-02T11:38:50.445Z,69.18
2023-01-02T11:41:56.684Z,69.37
2023-01-02T11:44:23.572Z,69.29
2023-01-02T11:46:50.911Z,69.15
2023-01-02T11:49:21.186Z,68.91
2023-01-02T11:52:02.965Z,68.57
2023-01-02T11:54:45.309Z,68.77
2023-01-02T11:57:46.180Z,68.65
2023-01-02T12:00:17.488Z,68.58
2023-01-02T12:02:48.927Z,68.56
2023-01-02T12:05:24.438Z,68.76
2023-01-02T12:08:01.330Z,68.51
2023-01-02T12:10:52.884Z,68.32
2023-01-02T12:13:26.110Z,68.29
2023-01-02T12:16:11.883Z,67.99
2023-01-02T12:19:05.224Z,68.39
2023-01-02T12:21:55.775Z,68.59
2023-01-02T12:25:11.016Z,68.52
2023-01-02T12:27:59.451Z,68.59
2023-01-02T12:31:12.446Z,68.23
2023-01-02T12:34:13.585Z,68.08
2023-01-02T12:36:48.773Z,68.03
2023-01-02T12:39:53.086Z,67.83
2023-01-02T12:42:29.106Z,67.71
2023-01-02T12:44:58.354Z,67.73
2023-01-02T12:47:58.602Z,67.68
2023-01-02T12:50:49.271Z,67.87
2023-01-02T12:53:39.288Z,67.50
2023-01-02T12:56:17.920Z,67.50
2023-01-02T12:59:11.675Z,67.51
2023-01-02T13:02:31.573Z,67.53
2023-01-02T13:05:07.494Z,67.11
2023-01-02T13:07:48.128Z,66.87
2023-01-02T13:10:19.428Z,66.80
2023-01-02T13:12:47.941Z,66.71
2023-01-02T13:15:20.999Z,66.60
2023-01-02T13:17:51.239Z,66.43
2023-01-02T13:20:36.507Z,66.27
2023-01-02T13:23:13.888Z,66.16
2023-01-02T13:25:50.702Z,65.93
2023-01-02T13:28:23.553Z,66.08
2023-01-02T13:30:57.581Z,66.14
2023-01-02T13:33:42.905Z,66.10
2023-01-02T13:36:28.630Z,66.43
2023-01-02T13:39:01.014Z,66.35
2023-01-02T13:41:31.590Z,66.33
2023-01-02T13:44:03.070Z,66.32
2023-01-02T13:49:21.299Z,66.23
2023-01-02T13:51:48.353Z,66.21
2023-01-02T13:54:20.715Z,66.05
2023-01-02T13:57:25.290Z,65.86
2023-01-02T14:00:00.636Z,65.93
2023-01-02T14:02:28.560Z,66.07
2023-01-02T14:04:56.041Z,66.01
2023-01-02T14:07:25.802Z,66.19
2023-01-02T14:10:16.230Z,66.38
2023-01-02T14:12:53.556Z,66.46
2023-01-02T14:15:26.241Z,66.66
2023-01-02T14:18:08.965Z,66.71
2023-01-02T14:20:44.124Z,67.02
2023-01-02T14:23:26.983Z,67.22
2023-01-02T14:25:55.264Z,67.36
2023-01-02T14:28:31.482Z,67.52
2023-01-02T14:30:59.048Z,67.67
2023-01-02T14:33:35.658Z,67.89
2023-01-02T14:36:08.640Z,68.17
2023-01-02T14:38:42.608Z,68.18
2023-01-02T14:41:53.136Z,68.54
2023-01-02T14:44:20.905Z,68.63
2023-01-02T14:46:50.411Z,68.84
2023-01-02T14:49:27.098Z,68.94
2023-01-02T14:52:03.707Z,69.32
2023-01-02T14:54:46.898Z,69.45
2023-01-02T14:57:28.087Z,69.65
2023-01-02T14:59:56.923Z,70.02
2023-01-02T15:02:34.336Z,69.92
2023-01-02T15:05:09.903Z,70.03
2023-01-02T15:07:43.838Z,70.03
2023-01-02T15:10:18.416Z,70.11
2023-01-02T15:13:03.552Z,70.25
2023-01-02T15:15:45.543Z,70.37
2023-01-02T15:18:12.868Z,70.28
2023-01-02T15:20:40.043Z,70.40
2023-01-02T15:23:07.674Z,70.53
2023-01-02T15:25:37.865Z,70.70
2023-01-02T15:28:07.033Z,70.70
2023-01-02T15:30:40.389Z,71.04
2023-01-02T15:33:27.733Z,71.19
2023-01-02T15:35:59.860Z,71.54
2023-01-02T15:38:27.453Z,71.67
2023-01-02T15:40:58.051Z,71.91
2023-01-02T15:43:47.060Z,72.35
2023-01-02T15:46:15.347Z,72.50
2023-01-02T15:48:43.936Z,72.86
2023-01-02T15:51:19.916Z,73.02
2023-01-02T15:54:11.659Z,73.22
2023-01-02T15:56:40.369Z,73.38
2023-01-02T15:59:29.984Z,73.69
2023-01-02T16:01:57.116Z,73.91
2023-01-02T16:04:30.605Z,73.92
2023-01-02T16:07:01.184Z,74.03
2023-01-02T16:09:31.469Z,74.22
2023-01-02T16:12:03.466Z,74.67
2023-01-02T16:14:53.000Z,74.61
2023-01-02T16:17:27.846Z,74.83
2023-01-02T16:19:58.832Z,74.81
2023-01-02T16:22:28.395Z,74.99
2023-01-02T16:25:07.905Z,75.20
2023-01-02T16:27:52.468Z,75.24
2023-01-02T16:30:25.593Z,75.31
2023-01-02T16:32:53.285Z,75.37
2023-01-02T16:35:29.920Z,75.50
2023-01-02T16:38:24.004Z,75.67
2023-01-02T16:41:01.570Z,75.57
2023-01-02T16:43:31.524Z,75.70
2023-01-02T16:46:00.194Z,75.86
2023-01-02T16:48:30.079Z,75.83
2023-01-02T16:50:59.865Z,76.02
2023-01-02T16:53:45.973Z,76.15
2023-01-02T16:56:14.854Z,76.38
2023-01-02T16:58:42.302Z,76.51
2023-01-02T17:01:14.212Z,76.34
2023-01-02T17:03:41.983Z,76.55
2023-01-02T17:06:15.368Z,76.59
2023-01-02T17:08:42.691Z,76.51
2023-01-02T17:11:15.749Z,76.83
2023-01-02T17:13:42.906Z,76.79
2023-01-02T17:16:10.720Z,76.92
2023-01-02T17:18:37.729Z,76.97
2023-01-02T17:21:05.196Z,77.17
2023-01-02T17:23:32.274Z,77.29
2023-01-02T17:25:59.520Z,77.40
2023-01-02T17:28:27.592Z,77.70
2023-01-02T17:30:54.950Z,77.79
2023-01-02T17:33:22.215Z,78.00
2023-01-02T17:35:53.814Z,78.16
2023-01-02T17:38:20.747Z,78.49
2023-01-02T17:40:48.680Z,78.66
2023-01-02T17:43:16.465Z,78.95
2023-01-02T17:45:43.825Z,79.23
2023-01-02T17:48:13.388Z,79.33
2023-01-02T17:50:42.271Z,79.94
2023-01-02T17:53:09.167Z,79.73
2023-01-02T17:55:36.554Z,80.18
2023-01-02T17:58:04.237Z,80.24
2023-01-02T18:00:31.538Z,80.56
2023-01-02T18:02:58.450Z,81.03
2023-01-02T18:05:25.871Z,80.71
2023-01-02T18:07:52.799Z,80.77
2023-01-02T18:10:21.075Z,80.84
2023-01-02T18:12:49.997Z,80.90
2023-01-02T18:15:19.693Z,81.11
2023-01-02T18:17:47.465Z,81.33
2023-01-02T18:20:21.237Z,81.28
2023-01-02T18:22:50.740Z,81.56
2023-01-02T18:25:27.784Z,81.67
2023-01-02T18:28:10.257Z,81.72
2023-01-02T18:30:37.501Z,82.37
2023-01-02T18:33:17.376Z,82.19
2023-01-02T18:35:58.712Z,82.44
2023-01-02T18:38:39.418Z,82.56
2023-01-02T18:41:23.714Z,82.88
2023-01-02T18:43:55.027Z,82.68
2023-01-02T18:47:03.488Z,82.67
2023-01-02T18:49:26.711Z,83.22
2023-01-02T18:52:12.120Z,83.33
2023-01-02T18:54:44.765Z,83.47
2023-01-02T18:57:15.850Z,83.60
2023-01-02T18:59:45.841Z,83.96
2023-01-02T19:02:42.276Z,84.07
2023-01-02T19:05:25.288Z,84.30
2023-01-02T19:08:00.292Z,84.83
2023-01-02T19:10:37.446Z,84.63
2023-01-02T19:13:17.922Z,84.50
2023-01-02T19:15:58.773Z,84.75
2023-01-02T19:18:39.038Z,85.03
2023-01-02T19:21:09.162Z,85.54
2023-01-02T19:23:39.381Z,86.16
2023-01-02T19:26:24.001Z,85.97
2023-01-02T19:29:01.626Z,85.98
2023-01-02T19:31:37.173Z,85.84
2023-01-02T19:34:22.658Z,86.52
2023-01-02T19:36:53.616Z,86.08
2023-01-02T19:39:25.843Z,86.48
2023-01-02T19:42:11.963Z,86.89
2023-01-02T19:44:40.476Z,86.91
2023-01-02T19:47:07.440Z,86.81
2023-01-02T19:49:34.644Z,86.84
2023-01-02T19:52:01.686Z,86.87
2023-01-02T19:54:28.945Z,86.85
2023-01-02T19:56:55.875Z,86.86
2023-01-02T19:59:23.197Z,86.94
2023-01-02T20:01:50.272Z,86.88
2023-01-02T20:04:17.535Z,86.65
2023-01-02T20:06:44.449Z,86.67
2023-01-02T20:09:11.765Z,86.55
2023-01-02T20:12:00.196Z,86.50
2023-01-02T20:14:30.069Z,86.15
2023-01-02T20:16:56.990Z,86.00
2023-01-02T20:19:24.236Z,86.19
2023-01-02T20:21:51.326Z,86.27
2023-01-02T20:24:18.518Z,86.17
2023-01-02T20:26:45.605Z,86.34
2023-01-02T20:29:12.753Z,86.22
2023-01-02T20:31:41.380Z,86.19
2023-01-02T20:34:08.608Z,86.08
2023-01-02T20:36:35.510Z,86.28
2023-01-02T20:39:03.033Z,86.22
2023-01-02T20:41:30.397Z,85.59
2023-01-02T20:43:57.829Z,85.57
2023-01-02T20:46:24.772Z,85.56
2023-01-02T20:48:52.088Z,85.33
2023-01-02T20:51:18.982Z,85.25
2023-01-02T20:53:46.157Z,85.17
2023-01-02T20:56:13.257Z,84.59
2023-01-02T20:58:40.450Z,84.43
2023-01-02T21:01:07.351Z,84.15
2023-01-02T21:03:34.715Z,83.25
2023-01-02T21:06:01.824Z,83.13
2023-01-02T21:08:29.322Z,82.91
2023-01-02T21:10:56.396Z,82.58
2023-01-02T21:13:23.580Z,82.15
2023-01-02T21:15:52.031Z,82.11
2023-01-02T21:18:23.195Z,82.19
2023-01-02T21:20:56.112Z,81.88
2023-01-02T21:23:25.444Z,81.58
2023-01-02T21:25:53.199Z,81.58
2023-01-02T21:28:21.788Z,81.58
2023-01-02T21:30:49.347Z,81.36
2023-01-02T21:33:19.094Z,81.15
2023-01-02T21:35:47.306Z,80.67
2023-01-02T21:38:14.687Z,80.91
2023-01-02T21:40:41.671Z,80.98
2023-01-02T21:43:09.314Z,81.06
2023-01-02T21:45:36.246Z,81.10
2023-01-02T21:48:03.720Z,80.51
2023-01-02T21:50:30.632Z,80.54
2023-01-02T21:52:57.831Z,80.56
2023-01-02T21:55:25.421Z,80.12
2023-01-02T21:58:14.616Z,79.78
2023-01-02T22:00:43.059Z,79.56
2023-01-02T22:03:10.781Z,79.64
2023-01-02T22:05:38.033Z,79.38
2023-01-02T22:08:05.588Z,79.15
2023-01-02T22:10:32.593Z,79.14
2023-01-02T22:12:59.870Z,79.00
2023-01-02T22:15:26.760Z,78.23
2023-01-02T22:17:54.022Z,77.92
2023-01-02T22:20:21.034Z,78.29
2023-01-02T22:22:48.296Z,78.04
2023-01-02T22:25:15.318Z,77.27
2023-01-02T22:27:42.519Z,77.39
2023-01-02T22:30:33.539Z,77.46
2023-01-02T22:32:58.010Z,77.79
2023-01-02T22:35:24.900Z,77.17
2023-01-02T22:37:52.103Z,77.00
2023-01-02T22:40:19.035Z,76.67
2023-01-02T22:43:00.950Z,76.81
2023-01-02T22:45:32.387Z,76.50
2023-01-02T22:48:03.681Z,77.12
2023-01-02T22:50:39.975Z,77.34
2023-01-02T22:53:16.992Z,77.56
2023-01-02T22:55:43.981Z,76.80
2023-01-02T22:58:11.230Z,76.09
2023-01-02T23:00:38.229Z,76.73
2023-01-02T23:03:10.158Z,76.51
2023-01-02T23:05:37.417Z,76.78
2023-01-02T23:08:04.843Z,76.97
2023-01-02T23:10:31.921Z,76.91
2023-01-02T23:12:59.358Z,77.15
2023-01-02T23:15:26.221Z,76.98
2023-01-02T23:18:11.828Z,77.41
2023-01-02T23:20:38.777Z,77.80
2023-01-02T23:23:06.625Z,77.88
2023-01-02T23:25:33.525Z,77.31
2023-01-02T23:28:00.813Z,77.56
2023-01-02T23:30:27.827Z,77.48
2023-01-02T23:32:54.967Z,76.37
2023-01-02T23:35:21.932Z,76.74
2023-01-02T23:37:49.111Z,76.69
2023-01-02T23:40:16.108Z,76.58
2023-01-02T23:42:43.211Z,76.88
2023-01-02T23:45:11.345Z,76.85
2023-01-02T23:47:38.535Z,76.98
2023-01-02T23:50:06.654Z,76.77
2023-01-02T23:52:33.874Z,76.68
2023-01-02T23:55:00.776Z,76.44
2023-01-02T23:57:28.806Z,76.74
2023-01-02T23:59:55.722Z,76.60
